Time;durP1;ratioP1;P1;durP2;ratioP2;P2;SDS_P1;SDS_P2;PMS_P1;PMS_P2;Temp;Humidity;BMP_temperature;BMP_pressure;BME280_temperature;BME280_humidity;BME280_pressure;Samples;Min_cycle;Max_cycle;Signal;HPM_P1;HPM_P2
2023/12/07 00:01:21;;;;;;;9.45;6.60;;;1.40;99.90;;;;;;4978566;28;20101;-89
2023/12/07 00:03:47;;;;;;;12.73;8.45;;;1.30;99.90;;;;;;4979056;28;20030;-89
2023/12/07 00:06:13;;;;;;;9.45;7.07;;;1.30;99.90;;;;;;4978395;28;20036;-88
2023/12/07 00:08:38;;;;;;;10.90;6.97;;;1.30;99.90;;;;;;4994676;28;20037;-89
2023/12/07 00:11:04;;;;;;;10.05;7.40;;;1.30;99.90;;;;;;4994317;28;20033;-88
2023/12/07 00:13:30;;;;;;;11.00;7.30;;;1.30;99.90;;;;;;4978337;28;20030;-87
2023/12/07 00:15:55;;;;;;;10.38;7.03;;;1.30;99.90;;;;;;4978467;28;20022;-82
2023/12/07 00:18:21;;;;;;;10.50;7.15;;;1.30;99.90;;;;;;4994417;28;20458;-88
2023/12/07 00:20:46;;;;;;;9.60;7.18;;;1.30;99.90;;;;;;4994485;28;20031;-88
2023/12/07 00:23:12;;;;;;;10.00;7.63;;;1.20;99.90;;;;;;4978391;28;20030;-88
2023/12/07 00:25:38;;;;;;;10.25;7.28;;;1.30;99.90;;;;;;4978693;28;20390;-86
2023/12/07 00:28:05;;;;;;;10.02;7.65;;;1.20;99.90;;;;;;4978463;28;20038;-88
2023/12/07 00:30:30;;;;;;;11.45;7.70;;;1.20;99.90;;;;;;4966637;28;20094;-88
2023/12/07 00:32:56;;;;;;;11.90;7.80;;;1.20;99.90;;;;;;5017379;28;20029;-86
2023/12/07 00:35:22;;;;;;;10.75;7.57;;;1.20;99.90;;;;;;5018590;28;20057;-88
2023/12/07 00:37:48;;;;;;;10.68;7.65;;;1.20;99.90;;;;;;5001303;28;20018;-87
2023/12/07 00:40:14;;;;;;;11.95;8.15;;;1.20;99.90;;;;;;4998580;28;20038;-87
2023/12/07 00:42:40;;;;;;;12.75;8.48;;;1.20;99.90;;;;;;4962619;28;20037;-88
2023/12/07 00:45:06;;;;;;;13.48;8.13;;;1.20;99.90;;;;;;4994293;28;20026;-88
2023/12/07 00:47:31;;;;;;;13.55;8.50;;;1.20;99.90;;;;;;4994235;28;20048;-88
2023/12/07 00:49:57;;;;;;;11.65;8.02;;;1.20;99.90;;;;;;4993967;28;20035;-87
2023/12/07 00:52:23;;;;;;;12.55;8.98;;;1.20;99.90;;;;;;4994081;28;20117;-88
2023/12/07 00:54:48;;;;;;;18.25;9.15;;;1.20;99.90;;;;;;4997772;28;20462;-89
2023/12/07 00:57:14;;;;;;;16.40;10.18;;;1.10;99.90;;;;;;4999213;28;20105;-87
2023/12/07 00:59:40;;;;;;;18.40;10.10;;;1.20;99.90;;;;;;4982133;28;20122;-88
2023/12/07 01:02:06;;;;;;;19.70;9.85;;;1.10;99.90;;;;;;4997955;28;20355;-88
2023/12/07 01:04:33;;;;;;;17.92;9.88;;;1.20;99.90;;;;;;4999018;28;20030;-87
2023/12/07 01:06:59;;;;;;;17.83;9.90;;;1.20;99.90;;;;;;4999200;28;20035;-88
2023/12/07 01:09:25;;;;;;;19.85;9.88;;;1.20;99.90;;;;;;4997321;28;20149;-88
2023/12/07 01:11:51;;;;;;;19.90;9.98;;;1.10;99.90;;;;;;4998770;28;20026;-87
2023/12/07 01:14:17;;;;;;;23.20;10.70;;;1.10;99.90;;;;;;4997061;28;20467;-87
2023/12/07 01:16:43;;;;;;;18.65;9.70;;;1.10;99.90;;;;;;4997586;28;20030;-88
2023/12/07 01:19:09;;;;;;;21.13;9.80;;;1.10;99.90;;;;;;4981326;28;20034;-87
2023/12/07 01:21:35;;;;;;;18.40;10.45;;;1.10;99.90;;;;;;4965591;28;20493;-89
2023/12/07 01:24:00;;;;;;;17.20;9.73;;;1.10;99.90;;;;;;4981297;28;20030;-87
2023/12/07 01:26:26;;;;;;;15.52;9.73;;;1.10;99.90;;;;;;4997653;28;20037;-87
2023/12/07 01:28:52;;;;;;;20.38;10.07;;;1.10;99.90;;;;;;4997394;28;20045;-88
2023/12/07 01:31:17;;;;;;;16.50;9.30;;;1.10;99.90;;;;;;4998191;28;20041;-88
2023/12/07 01:33:43;;;;;;;14.00;8.73;;;1.20;99.90;;;;;;4997435;28;20027;-88
2023/12/07 01:36:10;;;;;;;12.60;8.80;;;1.10;99.90;;;;;;4998113;28;20035;-88
2023/12/07 01:38:35;;;;;;;23.00;9.48;;;1.10;99.90;;;;;;4998568;28;20026;-88
2023/12/07 01:41:01;;;;;;;24.88;8.65;;;1.10;99.90;;;;;;4997562;28;20049;-88
2023/12/07 01:43:27;;;;;;;18.48;9.60;;;1.10;99.90;;;;;;4997338;28;20034;-88
2023/12/07 01:45:56;;;;;;;19.02;9.10;;;1.10;99.90;;;;;;4998094;28;20030;-87
2023/12/07 01:48:24;;;;;;;14.27;8.30;;;1.20;99.90;;;;;;5015493;28;20061;-87
2023/12/07 01:50:51;;;;;;;18.95;9.65;;;1.10;99.90;;;;;;5021570;28;20018;-87
2023/12/07 01:53:16;;;;;;;24.30;9.80;;;1.20;99.90;;;;;;5021015;28;20021;-85
2023/12/07 01:55:42;;;;;;;12.40;9.05;;;1.20;99.90;;;;;;5012943;28;20034;-88
2023/12/07 01:58:09;;;;;;;17.15;9.55;;;1.20;99.90;;;;;;4997360;28;20034;-87
2023/12/07 02:00:35;;;;;;;15.82;8.93;;;1.20;99.90;;;;;;4997123;28;20026;-88
2023/12/07 02:03:04;;;;;;;16.05;9.40;;;1.20;99.90;;;;;;4997010;28;20356;-88
2023/12/07 02:05:31;;;;;;;17.42;8.63;;;1.20;99.90;;;;;;4997713;28;20088;-88
2023/12/07 02:07:56;;;;;;;12.68;9.20;;;1.20;99.90;;;;;;4996385;28;20061;-88
2023/12/07 02:10:22;;;;;;;11.57;8.32;;;1.20;99.90;;;;;;4996403;28;20157;-88
2023/12/07 02:12:48;;;;;;;14.40;8.73;;;1.20;99.90;;;;;;4996762;28;20026;-87
2023/12/07 02:15:14;;;;;;;10.85;7.95;;;1.20;99.90;;;;;;4997193;28;20026;-86
2023/12/07 02:18:04;;;;;;;11.25;8.02;;;1.20;99.90;;;;;;4996279;28;20516;-88
2023/12/07 02:21:06;;;;;;;13.95;8.13;;;1.30;99.90;;;;;;4996513;28;20049;-88
2023/12/07 02:23:32;;;;;;;14.27;8.30;;;1.30;99.90;;;;;;4996506;28;20220;-87
2023/12/07 02:26:03;;;;;;;11.52;8.38;;;1.30;99.90;;;;;;4997490;28;20042;-87
2023/12/07 02:28:29;;;;;;;13.00;8.77;;;1.40;99.90;;;;;;4997284;28;20109;-88
2023/12/07 02:30:55;;;;;;;12.30;8.23;;;1.40;99.90;;;;;;4996446;28;20053;-88
2023/12/07 02:33:21;;;;;;;11.23;8.23;;;1.40;99.90;;;;;;4997275;28;20030;-88
2023/12/07 02:35:47;;;;;;;10.60;7.75;;;1.40;99.90;;;;;;4995437;28;20121;-87
2023/12/07 02:38:13;;;;;;;10.68;8.02;;;1.40;99.90;;;;;;4995389;28;20129;-86
2023/12/07 02:40:40;;;;;;;10.25;7.85;;;1.40;99.90;;;;;;4997402;28;20039;-87
2023/12/07 02:43:07;;;;;;;11.40;8.40;;;1.40;99.90;;;;;;4995981;28;20058;-88
2023/12/07 02:45:33;;;;;;;10.57;8.43;;;1.40;99.90;;;;;;4980710;28;20022;-87
2023/12/07 02:47:59;;;;;;;13.25;8.10;;;1.40;99.90;;;;;;4980396;28;20057;-88
2023/12/07 02:50:25;;;;;;;11.82;8.70;;;1.40;99.90;;;;;;4996093;28;20034;-88
2023/12/07 02:52:50;;;;;;;11.95;8.57;;;1.50;99.90;;;;;;4996477;28;20057;-89
2023/12/07 02:55:16;;;;;;;10.88;7.47;;;1.50;99.90;;;;;;4996120;28;20034;-88
2023/12/07 02:57:42;;;;;;;10.27;7.35;;;1.40;99.90;;;;;;4963699;28;20045;-88
2023/12/07 03:00:08;;;;;;;11.43;8.05;;;1.40;99.90;;;;;;4996753;28;20041;-88
2023/12/07 03:02:40;;;;;;;12.95;8.13;;;1.40;99.90;;;;;;4982082;28;20034;-87
2023/12/07 03:05:06;;;;;;;10.50;8.30;;;1.50;99.90;;;;;;5003037;28;20026;-88
2023/12/07 03:07:33;;;;;;;11.43;8.50;;;1.50;99.90;;;;;;5014825;28;20031;-87
2023/12/07 03:09:58;;;;;;;11.30;8.25;;;1.40;99.90;;;;;;5002461;28;20055;-87
2023/12/07 03:12:24;;;;;;;11.63;7.25;;;1.50;99.90;;;;;;4998045;28;20036;-87
2023/12/07 03:14:50;;;;;;;11.15;7.63;;;1.50;99.90;;;;;;4980954;28;20030;-87
2023/12/07 03:17:15;;;;;;;10.20;7.93;;;1.50;99.90;;;;;;4979181;28;20077;-88
2023/12/07 03:19:41;;;;;;;11.45;8.38;;;1.50;99.90;;;;;;4995318;28;20467;-88
2023/12/07 03:22:08;;;;;;;11.02;8.70;;;1.50;99.90;;;;;;4996672;28;20026;-87
2023/12/07 03:24:35;;;;;;;10.80;8.27;;;1.50;99.90;;;;;;4995470;28;20030;-88
2023/12/07 03:27:00;;;;;;;12.43;9.13;;;1.60;99.90;;;;;;4995592;28;20398;-87
2023/12/07 03:29:26;;;;;;;11.77;8.63;;;1.60;99.90;;;;;;4996595;28;20032;-87
2023/12/07 03:31:52;;;;;;;11.60;8.27;;;1.70;99.90;;;;;;4979314;28;20049;-87
2023/12/07 03:34:17;;;;;;;11.82;8.63;;;1.60;99.90;;;;;;4995742;28;20100;-87
2023/12/07 03:36:46;;;;;;;12.73;8.30;;;1.70;99.90;;;;;;4979067;28;20430;-88
2023/12/07 03:39:12;;;;;;;12.32;9.43;;;1.70;99.90;;;;;;4996396;28;20070;-89
2023/12/07 03:41:38;;;;;;;11.95;9.32;;;1.70;99.90;;;;;;4995240;28;20381;-88
2023/12/07 03:44:04;;;;;;;12.70;9.00;;;1.70;99.90;;;;;;4963066;28;20125;-88
2023/12/07 03:46:29;;;;;;;10.77;8.68;;;1.70;99.90;;;;;;4979172;28;20069;-88
2023/12/07 03:48:55;;;;;;;11.00;8.18;;;1.70;99.90;;;;;;4995295;28;20466;-88
2023/12/07 03:51:21;;;;;;;12.93;8.68;;;1.70;99.90;;;;;;4996347;28;20027;-84
2023/12/07 03:53:46;;;;;;;10.80;8.63;;;1.80;99.90;;;;;;4979261;28;20066;-87
2023/12/07 03:56:23;;;;;;;10.45;8.05;;;1.80;99.90;;;;;;4979122;28;20057;-89
2023/12/07 03:58:51;;;;;;;11.85;8.65;;;1.70;99.90;;;;;;4996492;28;20037;-87
2023/12/07 04:01:17;;;;;;;13.68;8.57;;;1.80;99.90;;;;;;4994838;28;20466;-87
2023/12/07 04:03:43;;;;;;;11.23;8.80;;;1.80;99.90;;;;;;4995685;28;20041;-88
2023/12/07 04:06:08;;;;;;;11.52;8.50;;;1.80;99.90;;;;;;4996121;28;20018;-88
2023/12/07 04:08:34;;;;;;;10.05;7.82;;;1.80;99.90;;;;;;4979368;28;20450;-89
2023/12/07 04:11:00;;;;;;;10.75;8.23;;;1.80;99.90;;;;;;4978770;28;20494;-87
2023/12/07 04:13:26;;;;;;;11.52;8.73;;;1.80;99.90;;;;;;4996907;28;20026;-89
2023/12/07 04:15:51;;;;;;;11.25;8.55;;;1.80;99.90;;;;;;4997958;28;20030;-89
2023/12/07 04:18:17;;;;;;;11.13;8.27;;;1.70;99.90;;;;;;5004093;28;20022;-84
2023/12/07 04:20:43;;;;;;;11.10;8.38;;;1.70;99.90;;;;;;5014494;28;20041;-88
2023/12/07 04:23:08;;;;;;;9.98;8.02;;;1.70;99.90;;;;;;5013175;28;20022;-89
2023/12/07 04:25:34;;;;;;;10.70;8.20;;;1.70;99.90;;;;;;5015491;28;20038;-88
2023/12/07 04:27:59;;;;;;;10.15;8.07;;;1.60;99.90;;;;;;5012270;28;20061;-87
2023/12/07 04:30:25;;;;;;;10.07;7.55;;;1.60;99.90;;;;;;4967815;28;20027;-82
2023/12/07 04:32:51;;;;;;;11.95;8.73;;;1.60;99.90;;;;;;4995835;28;20470;-88
2023/12/07 04:35:16;;;;;;;11.57;8.48;;;1.60;99.90;;;;;;4978226;28;20026;-83
2023/12/07 04:37:42;;;;;;;9.93;8.32;;;1.60;99.90;;;;;;4978202;28;20118;-87
2023/12/07 04:40:08;;;;;;;9.43;7.47;;;1.60;99.90;;;;;;4994200;28;20041;-88
2023/12/07 04:42:34;;;;;;;10.52;7.80;;;1.60;99.90;;;;;;4994273;28;20030;-87
2023/12/07 04:44:59;;;;;;;11.25;8.27;;;1.60;99.90;;;;;;4995817;28;20486;-87
2023/12/07 04:47:25;;;;;;;10.88;7.82;;;1.60;99.90;;;;;;4977965;28;20030;-87
2023/12/07 04:49:51;;;;;;;11.63;8.48;;;1.60;99.90;;;;;;4995030;28;20031;-89
2023/12/07 04:52:16;;;;;;;12.07;7.82;;;1.70;99.90;;;;;;4977610;28;20030;-88
2023/12/07 04:54:42;;;;;;;10.20;7.97;;;1.60;99.90;;;;;;4993946;28;20038;-88
2023/12/07 04:57:08;;;;;;;14.05;8.75;;;1.70;99.90;;;;;;4977844;28;20113;-88
2023/12/07 04:59:35;;;;;;;18.35;10.02;;;1.70;99.90;;;;;;4993641;28;20467;-87
2023/12/07 05:02:00;;;;;;;18.83;11.30;;;1.70;99.90;;;;;;4977744;28;20035;-88
2023/12/07 05:04:26;;;;;;;16.67;11.35;;;1.70;99.90;;;;;;4993737;28;20437;-88
2023/12/07 05:06:51;;;;;;;25.25;13.38;;;1.80;99.90;;;;;;4993592;28;20038;-89
2023/12/07 05:09:17;;;;;;;34.78;14.10;;;1.80;99.90;;;;;;4977521;28;20054;-88
2023/12/07 05:11:45;;;;;;;22.88;13.35;;;1.80;99.90;;;;;;4993565;28;20034;-87
2023/12/07 05:14:11;;;;;;;23.77;14.05;;;1.90;99.90;;;;;;4994040;28;20034;-88
2023/12/07 05:16:36;;;;;;;27.63;13.45;;;1.90;99.90;;;;;;4993642;28;20026;-88
2023/12/07 05:19:02;;;;;;;22.58;13.30;;;1.90;99.90;;;;;;4977456;28;20133;-89
2023/12/07 05:21:28;;;;;;;21.60;13.18;;;1.90;99.90;;;;;;4993375;28;20101;-88
2023/12/07 05:23:53;;;;;;;22.95;13.27;;;1.90;99.90;;;;;;4994699;28;20022;-88
2023/12/07 05:26:21;;;;;;;35.35;14.23;;;2.00;99.90;;;;;;4993814;28;20027;-89
2023/12/07 05:28:47;;;;;;;23.55;13.75;;;2.00;99.90;;;;;;4977761;28;20031;-87
2023/12/07 05:31:18;;;;;;;22.30;13.52;;;2.00;99.90;;;;;;4995130;28;20037;-88
2023/12/07 05:33:44;;;;;;;27.50;14.15;;;2.00;99.90;;;;;;4994998;28;20037;-90
2023/12/07 05:36:10;;;;;;;24.42;13.43;;;2.00;99.90;;;;;;4994724;28;20080;-89
2023/12/07 05:38:36;;;;;;;17.10;13.18;;;2.00;99.90;;;;;;4990116;28;20050;-83
2023/12/07 05:41:01;;;;;;;41.60;15.15;;;2.10;99.90;;;;;;5004178;28;20030;-87
2023/12/07 05:43:27;;;;;;;19.67;12.82;;;2.10;99.90;;;;;;5021337;28;20050;-89
2023/12/07 05:45:53;;;;;;;25.60;12.77;;;2.10;99.90;;;;;;5013919;28;20030;-88
2023/12/07 05:48:18;;;;;;;20.10;12.57;;;2.10;99.90;;;;;;4982176;28;20041;-88
2023/12/07 05:50:44;;;;;;;17.30;12.35;;;2.20;99.90;;;;;;4997023;28;20378;-87
2023/12/07 05:53:10;;;;;;;25.48;13.15;;;2.20;99.90;;;;;;4980519;28;20026;-87
2023/12/07 05:55:37;;;;;;;20.65;12.88;;;2.20;99.90;;;;;;4980986;28;20362;-84
2023/12/07 05:58:03;;;;;;;16.17;12.57;;;2.20;99.90;;;;;;4997255;28;20034;-91
2023/12/07 06:00:29;;;;;;;19.52;12.40;;;2.20;99.90;;;;;;4981346;28;20041;-91
2023/12/07 06:02:55;;;;;;;35.92;12.45;;;2.20;99.90;;;;;;4980639;28;20109;-91
2023/12/07 06:05:21;;;;;;;23.60;12.63;;;2.20;99.90;;;;;;4997091;28;20065;-90
2023/12/07 06:07:46;;;;;;;17.98;12.13;;;2.20;99.90;;;;;;4981211;28;20027;-92
2023/12/07 06:10:12;;;;;;;25.52;12.77;;;2.20;99.90;;;;;;4995868;28;20058;-93
2023/12/07 06:12:38;;;;;;;21.52;11.90;;;2.20;99.90;;;;;;4996813;28;20594;-89
2023/12/07 06:15:06;;;;;;;19.60;12.63;;;2.20;99.90;;;;;;4980039;28;20487;-88
2023/12/07 06:17:33;;;;;;;23.52;12.18;;;2.20;99.90;;;;;;4979870;28;20038;-90
2023/12/07 06:19:59;;;;;;;33.15;13.65;;;2.20;99.90;;;;;;4979476;28;20030;-87
2023/12/07 06:22:25;;;;;;;35.22;12.95;;;2.20;99.90;;;;;;4979437;28;20474;-84
2023/12/07 06:24:50;;;;;;;23.17;12.90;;;2.20;99.90;;;;;;4979007;28;20030;-88
2023/12/07 06:27:16;;;;;;;33.80;13.70;;;2.20;99.90;;;;;;4995250;28;20030;-88
2023/12/07 06:29:41;;;;;;;32.22;13.05;;;2.20;99.90;;;;;;4995650;28;20030;-89
2023/12/07 06:32:07;;;;;;;35.78;12.93;;;2.30;99.90;;;;;;4995293;28;20034;-91
2023/12/07 06:34:33;;;;;;;42.13;12.13;;;2.30;99.90;;;;;;4997280;28;20037;-91
2023/12/07 06:36:58;;;;;;;26.67;13.70;;;2.30;99.90;;;;;;4996596;28;20072;-91
2023/12/07 06:39:24;;;;;;;34.40;13.82;;;2.30;99.90;;;;;;4980128;28;20035;-90
2023/12/07 06:41:50;;;;;;;22.58;13.15;;;2.30;99.90;;;;;;4979674;28;20433;-91
2023/12/07 06:44:15;;;;;;;33.83;12.88;;;2.30;99.90;;;;;;4997387;28;20597;-91
2023/12/07 06:46:41;;;;;;;28.33;13.38;;;2.30;99.90;;;;;;4995841;28;20037;-86
2023/12/07 06:49:07;;;;;;;19.15;12.93;;;2.30;99.90;;;;;;4979856;28;20125;-91
2023/12/07 06:51:34;;;;;;;27.35;12.75;;;2.30;99.90;;;;;;4978364;28;20041;-89
2023/12/07 06:54:00;;;;;;;22.95;13.48;;;2.30;99.90;;;;;;4996178;28;20541;-88
2023/12/07 06:56:26;;;;;;;21.20;13.07;;;2.30;99.90;;;;;;5009811;28;20014;-90
2023/12/07 06:58:51;;;;;;;15.23;12.40;;;2.30;99.90;;;;;;5001611;28;20038;-88
2023/12/07 07:01:17;;;;;;;17.17;12.48;;;2.30;99.90;;;;;;5018724;28;20074;-89
2023/12/07 07:03:45;;;;;;;27.67;13.07;;;2.30;99.90;;;;;;4997717;28;20546;-89
2023/12/07 07:06:10;;;;;;;21.40;13.13;;;2.30;99.90;;;;;;4997600;28;20087;-90
2023/12/07 07:08:36;;;;;;;20.67;13.43;;;2.30;99.90;;;;;;4995472;28;20042;-89
2023/12/07 07:11:03;;;;;;;19.58;13.43;;;2.30;99.90;;;;;;4940666;28;1129751;-88
2023/12/07 07:13:29;;;;;;;26.48;13.63;;;2.20;99.90;;;;;;4996071;28;20039;-89
2023/12/07 07:15:54;;;;;;;25.23;12.80;;;2.30;99.90;;;;;;4979819;28;20033;-91
2023/12/07 07:18:23;;;;;;;19.70;13.25;;;2.30;99.90;;;;;;4979753;28;20031;-90
2023/12/07 07:20:49;;;;;;;20.25;13.38;;;2.30;99.90;;;;;;4979564;28;20121;-89
2023/12/07 07:23:15;;;;;;;19.25;13.13;;;2.20;99.90;;;;;;4995682;28;20087;-89
2023/12/07 07:25:41;;;;;;;21.58;14.10;;;2.20;99.90;;;;;;4979498;28;20026;-91
2023/12/07 07:28:07;;;;;;;24.25;14.98;;;2.20;99.90;;;;;;4995267;28;20100;-91
2023/12/07 07:30:33;;;;;;;26.05;14.82;;;2.20;99.90;;;;;;4995643;28;20023;-91
2023/12/07 07:32:58;;;;;;;16.92;13.43;;;2.20;99.90;;;;;;4979153;28;20463;-89
2023/12/07 07:35:24;;;;;;;28.58;15.13;;;2.20;99.90;;;;;;4995431;28;20105;-91
2023/12/07 07:37:50;;;;;;;26.23;13.23;;;2.20;99.90;;;;;;4995430;28;20030;-90
2023/12/07 07:40:15;;;;;;;25.45;13.85;;;2.30;99.90;;;;;;4978853;28;20064;-90
2023/12/07 07:42:41;;;;;;;19.30;14.65;;;2.30;99.90;;;;;;4979354;28;20113;-90
2023/12/07 07:45:07;;;;;;;17.42;13.95;;;2.30;99.90;;;;;;4995036;28;20069;-89
2023/12/07 07:47:33;;;;;;;29.65;15.35;;;2.30;99.90;;;;;;4996706;28;20034;-90
2023/12/07 07:50:03;;;;;;;24.02;14.75;;;2.30;99.90;;;;;;4995937;28;20117;-91
2023/12/07 07:52:29;;;;;;;18.85;14.27;;;2.30;99.90;;;;;;4996400;28;20026;-90
2023/12/07 07:54:54;;;;;;;25.20;14.13;;;2.30;99.90;;;;;;4979027;28;20095;-89
2023/12/07 07:57:20;;;;;;;24.02;14.02;;;2.30;99.90;;;;;;4994734;28;20573;-91
2023/12/07 07:59:46;;;;;;;27.42;14.80;;;2.30;99.90;;;;;;4995073;28;20035;-90
2023/12/07 08:02:11;;;;;;;22.17;14.70;;;2.30;99.90;;;;;;4995484;28;20034;-89
2023/12/07 08:04:37;;;;;;;24.20;14.38;;;2.30;99.90;;;;;;4995379;28;20027;-91
2023/12/07 08:07:03;;;;;;;25.33;14.55;;;2.30;99.90;;;;;;4978807;28;20121;-91
2023/12/07 08:09:28;;;;;;;19.38;13.68;;;2.30;99.90;;;;;;4995174;28;20495;-89
2023/12/07 08:11:54;;;;;;;22.27;14.55;;;2.30;99.90;;;;;;4979261;28;20485;-90
2023/12/07 08:14:20;;;;;;;26.50;14.25;;;2.30;99.90;;;;;;5010982;28;20506;-90
2023/12/07 08:16:46;;;;;;;28.30;15.07;;;2.30;99.90;;;;;;5017891;28;20026;-91
2023/12/07 08:19:12;;;;;;;19.52;14.43;;;2.30;99.90;;;;;;5018177;28;20291;-89
2023/12/07 08:21:38;;;;;;;23.85;14.70;;;2.40;99.90;;;;;;5009147;28;20050;-90
2023/12/07 08:24:05;;;;;;;23.45;14.32;;;2.40;99.90;;;;;;4980280;28;20030;-90
2023/12/07 08:26:31;;;;;;;24.80;14.18;;;2.40;99.90;;;;;;4978945;28;20037;-90
2023/12/07 08:28:57;;;;;;;19.42;13.57;;;2.40;99.90;;;;;;4994828;28;20038;-90
2023/12/07 08:31:23;;;;;;;21.15;14.30;;;2.40;99.90;;;;;;4978275;28;20030;-89
2023/12/07 08:33:52;;;;;;;21.98;15.13;;;2.40;99.90;;;;;;4994142;28;20023;-90
2023/12/07 08:36:20;;;;;;;24.08;14.75;;;2.40;99.90;;;;;;4994164;28;20474;-90
2023/12/07 08:38:46;;;;;;;31.35;16.00;;;2.40;99.90;;;;;;4995467;28;20031;-91
2023/12/07 08:41:11;;;;;;;27.70;17.15;;;2.30;99.90;;;;;;4977773;28;20034;-90
2023/12/07 08:43:37;;;;;;;25.10;16.52;;;2.30;99.90;;;;;;4994267;28;20062;-90
2023/12/07 08:46:04;;;;;;;25.00;16.75;;;2.40;99.90;;;;;;4994657;28;20049;-91
2023/12/07 08:48:30;;;;;;;24.55;17.05;;;2.40;99.90;;;;;;4995480;28;20529;-91
2023/12/07 08:50:55;;;;;;;25.85;15.98;;;2.30;99.90;;;;;;4994318;28;20027;-90
2023/12/07 08:53:21;;;;;;;26.25;15.35;;;2.30;99.90;;;;;;4978036;28;20053;-90
2023/12/07 08:55:47;;;;;;;22.85;14.07;;;2.30;99.90;;;;;;4978085;28;20069;-90
2023/12/07 08:58:12;;;;;;;20.05;13.32;;;2.30;99.90;;;;;;4977598;28;20035;-90
2023/12/07 09:00:38;;;;;;;19.13;12.30;;;2.30;99.90;;;;;;4994274;28;20081;-90
2023/12/07 09:03:04;;;;;;;17.40;12.82;;;2.30;99.90;;;;;;4994048;28;20030;-90
2023/12/07 09:05:30;;;;;;;20.17;14.77;;;2.30;99.90;;;;;;4994399;28;20034;-89
2023/12/07 09:07:56;;;;;;;21.02;13.90;;;2.40;99.90;;;;;;4994539;28;20053;-88
2023/12/07 09:10:22;;;;;;;22.02;14.10;;;2.40;99.90;;;;;;4977784;28;20591;-89
2023/12/07 09:12:48;;;;;;;19.00;13.88;;;2.40;99.90;;;;;;4994101;28;20087;-91
2023/12/07 09:15:13;;;;;;;19.27;13.90;;;2.40;99.90;;;;;;4997740;28;20104;-90
2023/12/07 09:17:39;;;;;;;20.30;13.75;;;2.40;99.90;;;;;;4997695;28;20142;-89
2023/12/07 09:20:14;;;;;;;21.40;13.00;;;2.50;99.90;;;;;;4997863;28;20030;-88
2023/12/07 09:22:45;;;;;;;19.10;13.38;;;2.50;99.90;;;;;;4999251;28;20374;-90
2023/12/07 09:25:11;;;;;;;17.42;12.98;;;2.50;99.90;;;;;;4998077;28;20019;-88
2023/12/07 09:27:38;;;;;;;17.55;12.13;;;2.50;99.90;;;;;;4998142;28;20053;-89
2023/12/07 09:30:10;;;;;;;19.08;12.02;;;2.50;99.90;;;;;;4998800;28;20034;-90
2023/12/07 09:32:40;;;;;;;16.42;11.13;;;2.50;99.90;;;;;;5019539;28;20026;-91
2023/12/07 09:35:07;;;;;;;17.98;10.32;;;2.50;99.90;;;;;;5021289;28;20022;-88
2023/12/07 09:37:35;;;;;;;13.07;9.77;;;2.50;99.90;;;;;;5021950;28;20060;-89
2023/12/07 09:40:04;;;;;;;12.88;9.30;;;2.50;99.90;;;;;;4988673;28;20035;-89
2023/12/07 09:42:30;;;;;;;11.70;9.05;;;2.50;99.90;;;;;;4998454;28;20027;-89
2023/12/07 09:44:55;;;;;;;16.13;8.75;;;2.50;99.90;;;;;;4981766;28;20474;-90
2023/12/07 09:47:21;;;;;;;11.05;8.35;;;2.50;99.90;;;;;;4997838;28;20034;-91
2023/12/07 09:49:47;;;;;;;11.50;8.60;;;2.50;99.90;;;;;;4998711;28;20064;-91
2023/12/07 09:52:15;;;;;;;11.73;8.93;;;2.50;99.90;;;;;;4981202;28;20092;-90
2023/12/07 09:54:42;;;;;;;12.05;9.15;;;2.50;99.90;;;;;;4997685;28;20043;-90
2023/12/07 09:57:10;;;;;;;11.70;8.88;;;2.50;99.90;;;;;;4997437;28;20451;-90
2023/12/07 09:59:36;;;;;;;14.20;10.05;;;2.60;99.90;;;;;;4981598;28;20034;-89
2023/12/07 10:02:02;;;;;;;13.50;9.63;;;2.60;99.90;;;;;;4981069;28;20569;-89
2023/12/07 10:04:28;;;;;;;12.82;9.30;;;2.60;99.90;;;;;;4997474;28;20493;-90
2023/12/07 10:06:56;;;;;;;13.55;9.40;;;2.60;99.90;;;;;;4998026;28;20030;-90
2023/12/07 10:09:22;;;;;;;14.38;10.27;;;2.60;99.90;;;;;;4997920;28;20096;-90
2023/12/07 10:11:48;;;;;;;13.15;9.95;;;2.70;99.90;;;;;;4997959;28;20113;-90
2023/12/07 10:14:14;;;;;;;13.25;9.60;;;2.60;99.90;;;;;;4996591;28;20030;-88
2023/12/07 10:16:56;;;;;;;15.07;9.43;;;2.60;99.90;;;;;;4998440;28;20041;-90
2023/12/07 10:19:21;;;;;;;;;;;2.70;99.90;;;;;;4998377;28;20022;-89
2023/12/07 10:21:51;;;;;;;15.23;10.13;;;2.70;99.90;;;;;;4996396;28;19909;-89
2023/12/07 10:24:19;;;;;;;16.85;11.05;;;2.80;99.90;;;;;;4996521;28;20374;-90
2023/12/07 10:26:45;;;;;;;17.75;11.43;;;2.70;99.90;;;;;;4996761;28;20494;-91
2023/12/07 10:29:11;;;;;;;16.23;11.43;;;2.70;99.90;;;;;;4997902;28;20038;-91
2023/12/07 10:31:37;;;;;;;17.60;12.02;;;2.70;99.90;;;;;;4980285;28;20026;-89
2023/12/07 10:34:04;;;;;;;17.33;11.32;;;2.80;99.90;;;;;;4980557;28;20061;-89
2023/12/07 10:36:30;;;;;;;17.23;11.27;;;2.80;99.90;;;;;;4980593;28;20027;-91
2023/12/07 10:38:56;;;;;;;18.73;12.38;;;2.90;99.90;;;;;;4996656;28;20117;-87
2023/12/07 10:41:24;;;;;;;18.77;11.43;;;2.90;99.90;;;;;;4996599;28;20045;-88
2023/12/07 10:44:04;;;;;;;17.27;11.13;;;2.90;99.90;;;;;;4996663;28;20026;-89
2023/12/07 10:46:33;;;;;;;18.60;12.50;;;3.00;99.90;;;;;;4998082;28;20022;-88
2023/12/07 10:49:05;;;;;;;19.45;11.35;;;2.90;99.90;;;;;;5006158;28;20014;-89
2023/12/07 10:51:57;;;;;;;20.00;12.32;;;3.00;99.90;;;;;;5020454;28;20170;-88
2023/12/07 10:54:33;;;;;;;21.27;12.93;;;3.00;99.90;;;;;;5014629;28;20030;-88
2023/12/07 10:57:03;;;;;;;21.63;13.43;;;3.00;99.90;;;;;;5006529;28;20031;-88
2023/12/07 10:59:31;;;;;;;23.58;13.60;;;3.00;99.90;;;;;;4982389;28;20034;-89
2023/12/07 11:01:57;;;;;;;22.17;14.15;;;3.00;99.90;;;;;;4998852;28;20463;-88
2023/12/07 11:04:24;;;;;;;23.88;13.40;;;3.10;99.90;;;;;;4996033;28;20031;-89
2023/12/07 11:06:53;;;;;;;24.98;14.57;;;3.10;99.90;;;;;;4995987;28;20114;-88
2023/12/07 11:09:28;;;;;;;27.13;16.90;;;3.10;99.90;;;;;;4995449;28;20065;-88
2023/12/07 11:12:30;;;;;;;26.83;16.08;;;3.10;99.90;;;;;;4995719;28;20112;-90
2023/12/07 11:14:56;;;;;;;27.30;16.10;;;3.20;99.90;;;;;;4993710;28;20040;-89
2023/12/07 11:17:22;;;;;;;28.83;15.85;;;3.20;99.90;;;;;;4995827;28;20129;-90
2023/12/07 11:19:48;;;;;;;32.38;19.33;;;3.20;99.90;;;;;;4979782;28;20524;-88
2023/12/07 11:22:14;;;;;;;30.73;18.02;;;3.20;99.90;;;;;;4979678;28;20061;-89
2023/12/07 11:25:10;;;;;;;30.00;17.05;;;3.20;99.90;;;;;;4995641;28;20018;-90
2023/12/07 11:27:37;;;;;;;32.05;17.80;;;3.20;99.90;;;;;;4971271;28;20045;-89
2023/12/07 11:30:03;;;;;;;28.58;17.98;;;3.30;99.90;;;;;;4996793;28;20095;-88
2023/12/07 11:32:29;;;;;;;31.30;18.23;;;3.30;99.90;;;;;;4995606;28;20109;-90
2023/12/07 11:35:03;;;;;;;31.05;18.58;;;3.40;99.90;;;;;;4979620;28;20030;-88
2023/12/07 11:38:06;;;;;;;32.88;19.75;;;3.50;99.90;;;;;;4994578;28;20033;-90
2023/12/07 11:40:34;;;;;;;28.90;17.60;;;3.50;99.90;;;;;;4996081;28;20142;-88
2023/12/07 11:43:00;;;;;;;28.73;18.48;;;3.60;99.90;;;;;;4995203;28;20057;-88
2023/12/07 11:45:46;;;;;;;30.05;18.25;;;3.70;99.90;;;;;;4996215;28;20065;-90
2023/12/07 11:48:13;;;;;;;28.38;17.38;;;3.70;99.90;;;;;;4994967;28;20026;-89
2023/12/07 11:51:15;;;;;;;33.55;18.75;;;3.80;99.90;;;;;;4978595;28;20022;-89
2023/12/07 11:53:41;;;;;;;29.40;18.05;;;3.80;99.90;;;;;;4974443;28;20031;-88
2023/12/07 11:56:11;;;;;;;32.05;18.30;;;3.80;99.90;;;;;;4990814;28;20045;-89
2023/12/07 11:58:37;;;;;;;29.77;18.37;;;3.90;99.90;;;;;;4978699;28;20041;-89
2023/12/07 12:01:04;;;;;;;32.20;20.42;;;3.90;99.90;;;;;;4994993;28;20390;-90
2023/12/07 12:03:32;;;;;;;30.00;18.83;;;3.90;99.90;;;;;;4994752;28;20381;-90
2023/12/07 12:05:58;;;;;;;33.63;19.48;;;3.90;99.90;;;;;;4978792;28;20034;-89
2023/12/07 12:08:24;;;;;;;29.60;18.98;;;3.90;99.90;;;;;;4996335;28;20041;-89
2023/12/07 12:10:52;;;;;;;31.10;19.02;;;4.00;99.90;;;;;;4997200;28;20043;-89
2023/12/07 12:13:18;;;;;;;31.73;19.80;;;4.00;99.90;;;;;;5015098;28;20019;-90
2023/12/07 12:15:46;;;;;;;29.08;17.67;;;4.00;99.90;;;;;;5018401;28;20050;-89
2023/12/07 12:18:13;;;;;;;31.42;19.40;;;4.00;99.90;;;;;;5001549;28;20117;-89
2023/12/07 12:20:39;;;;;;;32.47;19.42;;;4.00;99.90;;;;;;4995848;28;20027;-92
2023/12/07 12:23:05;;;;;;;30.02;19.00;;;4.10;99.90;;;;;;4995031;28;20076;-91
2023/12/07 12:25:31;;;;;;;33.15;19.95;;;4.10;99.90;;;;;;4978870;28;20034;-89
2023/12/07 12:28:01;;;;;;;33.78;21.15;;;4.10;99.90;;;;;;4995323;28;20451;-90
2023/12/07 12:30:28;;;;;;;29.88;19.80;;;4.10;99.90;;;;;;4994427;28;20030;-90
2023/12/07 12:32:53;;;;;;;31.05;20.08;;;4.00;99.90;;;;;;4994463;28;20041;-89
2023/12/07 12:35:19;;;;;;;30.58;19.58;;;3.90;99.90;;;;;;4994431;28;20031;-89
2023/12/07 12:37:48;;;;;;;35.55;20.00;;;4.00;99.90;;;;;;4994518;28;20066;-90
2023/12/07 12:40:19;;;;;;;33.80;20.60;;;4.00;99.90;;;;;;4978344;28;20222;-91